Terminal Aerodrome Forecast
Issued by NWS Jackson, MS

Home | Current Version | Previous Version | Text Only | Print | Product List | Glossary On
Versions: 1 2 3 4 5 6 7 8 9 10 11 12 13 14 15 16 17 18
000
FTUS44 KJAN 270500
TAFJAN
TAF
KJAN 270540Z 2706/2806 13008KT P6SM -RA BKN035 OVC050
     FM271000 14008KT 5SM -RA BR OVC015
     FM280000 13006KT 4SM -RA BR OVC007=

USA.gov is the U.S. government's official web portal to all federal, state and local government web resources and services.